sensor_id;sensor_type;location;lat;lon;timestamp;P1;durP1;ratioP1;P2;durP2;ratioP2
17235;SDS011;8734;59.272;17.780;2024-03-02T00:00:50;60.60;;;22.23;;
17235;SDS011;8734;59.272;17.780;2024-03-02T00:03:18;69.23;;;23.70;;
17235;SDS011;8734;59.272;17.780;2024-03-02T00:05:49;65.53;;;21.93;;
17235;SDS011;8734;59.272;17.780;2024-03-02T00:08:22;78.83;;;24.80;;
17235;SDS011;8734;59.272;17.780;2024-03-02T00:10:55;65.47;;;21.43;;
17235;SDS011;8734;59.272;17.780;2024-03-02T00:13:25;66.13;;;23.30;;
17235;SDS011;8734;59.272;17.780;2024-03-02T00:15:54;69.50;;;23.40;;
17235;SDS011;8734;59.272;17.780;2024-03-02T00:18:25;68.83;;;23.50;;
17235;SDS011;8734;59.272;17.780;2024-03-02T00:20:58;76.60;;;23.57;;
17235;SDS011;8734;59.272;17.780;2024-03-02T00:23:27;62.90;;;21.93;;
17235;SDS011;8734;59.272;17.780;2024-03-02T00:26:01;54.27;;;20.70;;
17235;SDS011;8734;59.272;17.780;2024-03-02T00:28:30;71.10;;;21.63;;
17235;SDS011;8734;59.272;17.780;2024-03-02T00:31:04;338.43;;;26.40;;
17235;SDS011;8734;59.272;17.780;2024-03-02T00:33:34;53.33;;;20.23;;
17235;SDS011;8734;59.272;17.780;2024-03-02T00:36:04;306.53;;;24.73;;
17235;SDS011;8734;59.272;17.780;2024-03-02T00:38:33;60.93;;;21.00;;
17235;SDS011;8734;59.272;17.780;2024-03-02T00:41:07;101.97;;;20.73;;
17235;SDS011;8734;59.272;17.780;2024-03-02T00:43:47;64.80;;;20.20;;
17235;SDS011;8734;59.272;17.780;2024-03-02T00:46:17;53.60;;;19.27;;
17235;SDS011;8734;59.272;17.780;2024-03-02T00:48:55;66.83;;;20.60;;
17235;SDS011;8734;59.272;17.780;2024-03-02T00:51:25;73.77;;;21.83;;
17235;SDS011;8734;59.272;17.780;2024-03-02T00:53:54;71.93;;;21.73;;
17235;SDS011;8734;59.272;17.780;2024-03-02T00:56:27;64.93;;;22.30;;
17235;SDS011;8734;59.272;17.780;2024-03-02T00:58:55;63.27;;;21.43;;
17235;SDS011;8734;59.272;17.780;2024-03-02T01:01:24;65.60;;;21.37;;
17235;SDS011;8734;59.272;17.780;2024-03-02T01:03:52;68.27;;;22.33;;
17235;SDS011;8734;59.272;17.780;2024-03-02T01:06:21;56.13;;;21.87;;
17235;SDS011;8734;59.272;17.780;2024-03-02T01:08:49;75.47;;;22.60;;
17235;SDS011;8734;59.272;17.780;2024-03-02T01:11:19;78.70;;;21.17;;
17235;SDS011;8734;59.272;17.780;2024-03-02T01:13:51;324.33;;;26.00;;
17235;SDS011;8734;59.272;17.780;2024-03-02T01:16:19;226.67;;;24.93;;
17235;SDS011;8734;59.272;17.780;2024-03-02T01:18:48;161.17;;;23.43;;
17235;SDS011;8734;59.272;17.780;2024-03-02T01:21:18;58.77;;;18.50;;
17235;SDS011;8734;59.272;17.780;2024-03-02T01:23:46;120.83;;;19.87;;
17235;SDS011;8734;59.272;17.780;2024-03-02T01:26:14;57.40;;;19.43;;
17235;SDS011;8734;59.272;17.780;2024-03-02T01:28:43;73.77;;;20.17;;
17235;SDS011;8734;59.272;17.780;2024-03-02T01:31:13;64.00;;;19.47;;
17235;SDS011;8734;59.272;17.780;2024-03-02T01:33:41;74.30;;;21.07;;
17235;SDS011;8734;59.272;17.780;2024-03-02T01:36:10;49.93;;;18.37;;
17235;SDS011;8734;59.272;17.780;2024-03-02T01:38:38;68.77;;;18.23;;
17235;SDS011;8734;59.272;17.780;2024-03-02T01:41:06;66.13;;;20.13;;
17235;SDS011;8734;59.272;17.780;2024-03-02T01:43:34;57.80;;;18.97;;
17235;SDS011;8734;59.272;17.780;2024-03-02T01:46:07;575.53;;;33.57;;
17235;SDS011;8734;59.272;17.780;2024-03-02T01:48:37;367.77;;;23.60;;
17235;SDS011;8734;59.272;17.780;2024-03-02T01:51:08;184.57;;;22.07;;
17235;SDS011;8734;59.272;17.780;2024-03-02T01:53:37;57.87;;;18.83;;
17235;SDS011;8734;59.272;17.780;2024-03-02T01:56:05;59.70;;;17.70;;
17235;SDS011;8734;59.272;17.780;2024-03-02T01:58:34;61.60;;;19.77;;
17235;SDS011;8734;59.272;17.780;2024-03-02T02:01:02;150.73;;;20.50;;
17235;SDS011;8734;59.272;17.780;2024-03-02T02:03:31;57.57;;;17.50;;
17235;SDS011;8734;59.272;17.780;2024-03-02T02:06:00;60.17;;;16.90;;
17235;SDS011;8734;59.272;17.780;2024-03-02T02:08:29;67.43;;;17.30;;
17235;SDS011;8734;59.272;17.780;2024-03-02T02:10:57;44.40;;;17.23;;
17235;SDS011;8734;59.272;17.780;2024-03-02T02:13:25;81.37;;;19.13;;
17235;SDS011;8734;59.272;17.780;2024-03-02T02:15:54;55.27;;;18.50;;
17235;SDS011;8734;59.272;17.780;2024-03-02T02:18:22;58.47;;;19.30;;
17235;SDS011;8734;59.272;17.780;2024-03-02T02:20:51;56.80;;;19.03;;
17235;SDS011;8734;59.272;17.780;2024-03-02T02:23:20;72.53;;;20.40;;
17235;SDS011;8734;59.272;17.780;2024-03-02T02:25:48;57.90;;;19.70;;
17235;SDS011;8734;59.272;17.780;2024-03-02T02:28:17;55.53;;;19.70;;
17235;SDS011;8734;59.272;17.780;2024-03-02T02:30:45;58.20;;;18.67;;
17235;SDS011;8734;59.272;17.780;2024-03-02T02:33:13;50.23;;;17.90;;
17235;SDS011;8734;59.272;17.780;2024-03-02T02:35:41;55.60;;;18.17;;
17235;SDS011;8734;59.272;17.780;2024-03-02T02:38:12;54.83;;;18.83;;
17235;SDS011;8734;59.272;17.780;2024-03-02T02:40:41;62.60;;;19.40;;
17235;SDS011;8734;59.272;17.780;2024-03-02T02:43:09;59.93;;;18.70;;
17235;SDS011;8734;59.272;17.780;2024-03-02T02:45:37;66.77;;;19.97;;
17235;SDS011;8734;59.272;17.780;2024-03-02T02:48:06;65.70;;;20.70;;
17235;SDS011;8734;59.272;17.780;2024-03-02T02:50:34;65.40;;;21.17;;
17235;SDS011;8734;59.272;17.780;2024-03-02T02:53:03;66.10;;;20.80;;
17235;SDS011;8734;59.272;17.780;2024-03-02T02:55:31;98.33;;;22.90;;
17235;SDS011;8734;59.272;17.780;2024-03-02T02:58:01;72.97;;;21.43;;
17235;SDS011;8734;59.272;17.780;2024-03-02T03:00:30;57.23;;;20.60;;
17235;SDS011;8734;59.272;17.780;2024-03-02T03:02:58;152.30;;;22.90;;
17235;SDS011;8734;59.272;17.780;2024-03-02T03:05:26;66.50;;;20.73;;
17235;SDS011;8734;59.272;17.780;2024-03-02T03:07:54;67.17;;;21.30;;
17235;SDS011;8734;59.272;17.780;2024-03-02T03:10:23;77.40;;;21.40;;
17235;SDS011;8734;59.272;17.780;2024-03-02T03:12:53;62.50;;;22.17;;
17235;SDS011;8734;59.272;17.780;2024-03-02T03:15:24;69.50;;;21.60;;
17235;SDS011;8734;59.272;17.780;2024-03-02T03:17:52;65.43;;;21.63;;
17235;SDS011;8734;59.272;17.780;2024-03-02T03:20:21;71.37;;;22.60;;
17235;SDS011;8734;59.272;17.780;2024-03-02T03:22:50;75.37;;;21.87;;
17235;SDS011;8734;59.272;17.780;2024-03-02T03:25:18;87.73;;;23.03;;
17235;SDS011;8734;59.272;17.780;2024-03-02T03:27:46;78.37;;;23.57;;
17235;SDS011;8734;59.272;17.780;2024-03-02T03:30:14;83.40;;;24.27;;
17235;SDS011;8734;59.272;17.780;2024-03-02T03:32:44;143.43;;;25.60;;
17235;SDS011;8734;59.272;17.780;2024-03-02T03:35:14;71.87;;;22.87;;
17235;SDS011;8734;59.272;17.780;2024-03-02T03:37:42;77.33;;;23.80;;
17235;SDS011;8734;59.272;17.780;2024-03-02T03:40:11;86.43;;;24.07;;
17235;SDS011;8734;59.272;17.780;2024-03-02T03:42:40;79.53;;;24.53;;
17235;SDS011;8734;59.272;17.780;2024-03-02T03:45:09;80.20;;;26.20;;
17235;SDS011;8734;59.272;17.780;2024-03-02T03:47:37;87.07;;;23.33;;
17235;SDS011;8734;59.272;17.780;2024-03-02T03:50:07;69.63;;;23.50;;
17235;SDS011;8734;59.272;17.780;2024-03-02T03:52:36;74.97;;;23.63;;
17235;SDS011;8734;59.272;17.780;2024-03-02T03:55:04;103.87;;;25.93;;
17235;SDS011;8734;59.272;17.780;2024-03-02T03:57:33;112.93;;;23.80;;
17235;SDS011;8734;59.272;17.780;2024-03-02T04:00:02;90.30;;;25.13;;
17235;SDS011;8734;59.272;17.780;2024-03-02T04:02:32;80.47;;;25.93;;
17235;SDS011;8734;59.272;17.780;2024-03-02T04:05:01;85.60;;;25.13;;
17235;SDS011;8734;59.272;17.780;2024-03-02T04:07:36;105.37;;;25.77;;
17235;SDS011;8734;59.272;17.780;2024-03-02T04:10:10;93.07;;;25.63;;
17235;SDS011;8734;59.272;17.780;2024-03-02T04:12:38;83.37;;;25.83;;
17235;SDS011;8734;59.272;17.780;2024-03-02T04:15:08;98.90;;;26.50;;
17235;SDS011;8734;59.272;17.780;2024-03-02T04:17:36;105.20;;;26.40;;
17235;SDS011;8734;59.272;17.780;2024-03-02T04:20:05;87.13;;;27.10;;
17235;SDS011;8734;59.272;17.780;2024-03-02T04:22:34;83.07;;;26.63;;
17235;SDS011;8734;59.272;17.780;2024-03-02T04:25:04;107.83;;;27.93;;
17235;SDS011;8734;59.272;17.780;2024-03-02T04:27:34;86.93;;;26.80;;
17235;SDS011;8734;59.272;17.780;2024-03-02T04:30:03;478.00;;;36.83;;
17235;SDS011;8734;59.272;17.780;2024-03-02T04:32:33;139.70;;;30.20;;
17235;SDS011;8734;59.272;17.780;2024-03-02T04:35:03;94.93;;;27.63;;
17235;SDS011;8734;59.272;17.780;2024-03-02T04:37:33;97.63;;;25.80;;
17235;SDS011;8734;59.272;17.780;2024-03-02T04:40:02;107.90;;;28.37;;
17235;SDS011;8734;59.272;17.780;2024-03-02T04:42:34;84.60;;;26.30;;
17235;SDS011;8734;59.272;17.780;2024-03-02T04:45:02;170.83;;;28.07;;
17235;SDS011;8734;59.272;17.780;2024-03-02T04:47:31;87.57;;;26.67;;
17235;SDS011;8734;59.272;17.780;2024-03-02T04:49:59;93.87;;;26.43;;
17235;SDS011;8734;59.272;17.780;2024-03-02T04:52:27;99.13;;;26.13;;
17235;SDS011;8734;59.272;17.780;2024-03-02T04:54:55;94.40;;;27.77;;
17235;SDS011;8734;59.272;17.780;2024-03-02T04:57:45;290.93;;;29.17;;
17235;SDS011;8734;59.272;17.780;2024-03-02T05:00:14;102.57;;;31.33;;
17235;SDS011;8734;59.272;17.780;2024-03-02T05:02:42;104.00;;;28.23;;
17235;SDS011;8734;59.272;17.780;2024-03-02T05:05:11;108.03;;;28.97;;
17235;SDS011;8734;59.272;17.780;2024-03-02T05:07:39;112.37;;;30.73;;
17235;SDS011;8734;59.272;17.780;2024-03-02T05:10:08;103.00;;;30.13;;
17235;SDS011;8734;59.272;17.780;2024-03-02T05:12:38;101.73;;;28.60;;
17235;SDS011;8734;59.272;17.780;2024-03-02T05:15:24;92.03;;;26.63;;
17235;SDS011;8734;59.272;17.780;2024-03-02T05:17:53;103.63;;;29.17;;
17235;SDS011;8734;59.272;17.780;2024-03-02T05:20:23;98.23;;;28.57;;
17235;SDS011;8734;59.272;17.780;2024-03-02T05:22:51;121.23;;;28.10;;
17235;SDS011;8734;59.272;17.780;2024-03-02T05:25:19;103.77;;;28.93;;
17235;SDS011;8734;59.272;17.780;2024-03-02T05:27:48;101.53;;;29.93;;
17235;SDS011;8734;59.272;17.780;2024-03-02T05:30:16;97.10;;;27.37;;
17235;SDS011;8734;59.272;17.780;2024-03-02T05:32:46;100.83;;;28.63;;
17235;SDS011;8734;59.272;17.780;2024-03-02T05:35:14;120.67;;;28.67;;
17235;SDS011;8734;59.272;17.780;2024-03-02T05:37:41;109.77;;;29.03;;
17235;SDS011;8734;59.272;17.780;2024-03-02T05:40:09;101.07;;;27.67;;
17235;SDS011;8734;59.272;17.780;2024-03-02T05:42:39;111.57;;;30.23;;
17235;SDS011;8734;59.272;17.780;2024-03-02T05:45:08;113.27;;;29.27;;
17235;SDS011;8734;59.272;17.780;2024-03-02T05:47:36;104.90;;;28.67;;
17235;SDS011;8734;59.272;17.780;2024-03-02T05:50:06;98.57;;;28.43;;
17235;SDS011;8734;59.272;17.780;2024-03-02T05:52:35;110.33;;;31.67;;
17235;SDS011;8734;59.272;17.780;2024-03-02T05:55:03;117.77;;;29.30;;
17235;SDS011;8734;59.272;17.780;2024-03-02T05:57:32;130.57;;;31.93;;
17235;SDS011;8734;59.272;17.780;2024-03-02T06:00:14;134.80;;;33.87;;
17235;SDS011;8734;59.272;17.780;2024-03-02T06:02:43;129.93;;;30.83;;
17235;SDS011;8734;59.272;17.780;2024-03-02T06:05:13;120.33;;;29.57;;
17235;SDS011;8734;59.272;17.780;2024-03-02T06:07:43;134.67;;;32.20;;
17235;SDS011;8734;59.272;17.780;2024-03-02T06:10:11;118.83;;;31.33;;
17235;SDS011;8734;59.272;17.780;2024-03-02T06:12:41;117.87;;;30.50;;
17235;SDS011;8734;59.272;17.780;2024-03-02T06:15:09;100.57;;;29.43;;
17235;SDS011;8734;59.272;17.780;2024-03-02T06:17:37;135.63;;;29.77;;
17235;SDS011;8734;59.272;17.780;2024-03-02T06:20:06;121.17;;;32.00;;
17235;SDS011;8734;59.272;17.780;2024-03-02T06:22:37;121.63;;;32.90;;
17235;SDS011;8734;59.272;17.780;2024-03-02T06:25:05;130.77;;;33.03;;
17235;SDS011;8734;59.272;17.780;2024-03-02T06:27:34;124.43;;;33.60;;
17235;SDS011;8734;59.272;17.780;2024-03-02T06:30:03;141.50;;;31.50;;
17235;SDS011;8734;59.272;17.780;2024-03-02T06:32:32;119.10;;;32.90;;
17235;SDS011;8734;59.272;17.780;2024-03-02T06:35:00;119.70;;;32.23;;
17235;SDS011;8734;59.272;17.780;2024-03-02T06:37:30;122.90;;;33.13;;
17235;SDS011;8734;59.272;17.780;2024-03-02T06:40:00;133.47;;;34.67;;
17235;SDS011;8734;59.272;17.780;2024-03-02T06:42:28;126.40;;;31.50;;
17235;SDS011;8734;59.272;17.780;2024-03-02T06:45:00;125.40;;;32.20;;
17235;SDS011;8734;59.272;17.780;2024-03-02T06:47:29;147.43;;;32.73;;
17235;SDS011;8734;59.272;17.780;2024-03-02T06:49:57;129.67;;;32.77;;
17235;SDS011;8734;59.272;17.780;2024-03-02T06:52:26;125.47;;;31.20;;
17235;SDS011;8734;59.272;17.780;2024-03-02T06:54:54;122.00;;;31.00;;
17235;SDS011;8734;59.272;17.780;2024-03-02T06:57:24;110.93;;;30.13;;
17235;SDS011;8734;59.272;17.780;2024-03-02T06:59:52;135.00;;;33.67;;
17235;SDS011;8734;59.272;17.780;2024-03-02T07:02:26;131.93;;;33.03;;
17235;SDS011;8734;59.272;17.780;2024-03-02T07:04:55;115.97;;;30.93;;
17235;SDS011;8734;59.272;17.780;2024-03-02T07:07:23;131.07;;;33.30;;
17235;SDS011;8734;59.272;17.780;2024-03-02T07:09:51;121.07;;;30.73;;
17235;SDS011;8734;59.272;17.780;2024-03-02T07:12:19;116.60;;;28.80;;
17235;SDS011;8734;59.272;17.780;2024-03-02T07:14:49;115.40;;;32.10;;
17235;SDS011;8734;59.272;17.780;2024-03-02T07:17:51;127.37;;;32.47;;
17235;SDS011;8734;59.272;17.780;2024-03-02T07:20:19;117.07;;;29.73;;
17235;SDS011;8734;59.272;17.780;2024-03-02T07:22:47;128.47;;;31.83;;
17235;SDS011;8734;59.272;17.780;2024-03-02T07:25:16;122.93;;;33.13;;
17235;SDS011;8734;59.272;17.780;2024-03-02T07:27:47;130.93;;;32.33;;
17235;SDS011;8734;59.272;17.780;2024-03-02T07:30:16;109.37;;;31.53;;
17235;SDS011;8734;59.272;17.780;2024-03-02T07:32:45;121.80;;;31.20;;
17235;SDS011;8734;59.272;17.780;2024-03-02T07:35:13;131.30;;;33.90;;
17235;SDS011;8734;59.272;17.780;2024-03-02T07:37:42;124.13;;;30.53;;
17235;SDS011;8734;59.272;17.780;2024-03-02T07:40:11;112.73;;;30.63;;
17235;SDS011;8734;59.272;17.780;2024-03-02T07:42:40;124.70;;;31.23;;
17235;SDS011;8734;59.272;17.780;2024-03-02T07:45:09;116.30;;;31.23;;
17235;SDS011;8734;59.272;17.780;2024-03-02T07:47:38;113.10;;;30.03;;
17235;SDS011;8734;59.272;17.780;2024-03-02T07:50:08;108.47;;;30.80;;
17235;SDS011;8734;59.272;17.780;2024-03-02T07:52:36;112.00;;;30.07;;
17235;SDS011;8734;59.272;17.780;2024-03-02T07:55:04;115.87;;;31.50;;
17235;SDS011;8734;59.272;17.780;2024-03-02T07:57:33;117.97;;;29.77;;
17235;SDS011;8734;59.272;17.780;2024-03-02T08:00:01;110.90;;;31.60;;
17235;SDS011;8734;59.272;17.780;2024-03-02T08:02:30;107.43;;;30.40;;
17235;SDS011;8734;59.272;17.780;2024-03-02T08:05:00;110.57;;;32.30;;
17235;SDS011;8734;59.272;17.780;2024-03-02T08:07:28;119.03;;;32.03;;
17235;SDS011;8734;59.272;17.780;2024-03-02T08:09:56;114.63;;;32.47;;
17235;SDS011;8734;59.272;17.780;2024-03-02T08:12:25;123.17;;;33.27;;
17235;SDS011;8734;59.272;17.780;2024-03-02T08:14:53;114.93;;;30.67;;
17235;SDS011;8734;59.272;17.780;2024-03-02T08:17:21;113.90;;;32.47;;
17235;SDS011;8734;59.272;17.780;2024-03-02T08:19:49;112.90;;;30.43;;
17235;SDS011;8734;59.272;17.780;2024-03-02T08:22:19;109.53;;;31.60;;
17235;SDS011;8734;59.272;17.780;2024-03-02T08:24:47;113.87;;;30.60;;
17235;SDS011;8734;59.272;17.780;2024-03-02T08:27:16;110.33;;;31.20;;
17235;SDS011;8734;59.272;17.780;2024-03-02T08:29:44;109.63;;;32.77;;
17235;SDS011;8734;59.272;17.780;2024-03-02T08:32:12;110.60;;;32.43;;
17235;SDS011;8734;59.272;17.780;2024-03-02T08:34:41;113.73;;;30.10;;
17235;SDS011;8734;59.272;17.780;2024-03-02T08:37:09;125.57;;;30.43;;
17235;SDS011;8734;59.272;17.780;2024-03-02T08:39:39;104.30;;;28.33;;
17235;SDS011;8734;59.272;17.780;2024-03-02T08:42:07;107.80;;;29.63;;
17235;SDS011;8734;59.272;17.780;2024-03-02T08:44:35;103.57;;;31.57;;
17235;SDS011;8734;59.272;17.780;2024-03-02T08:47:04;106.47;;;28.37;;
17235;SDS011;8734;59.272;17.780;2024-03-02T08:49:32;106.23;;;31.43;;
17235;SDS011;8734;59.272;17.780;2024-03-02T08:52:00;103.63;;;30.07;;
17235;SDS011;8734;59.272;17.780;2024-03-02T08:54:28;96.07;;;30.77;;
17235;SDS011;8734;59.272;17.780;2024-03-02T08:56:59;102.30;;;29.57;;
17235;SDS011;8734;59.272;17.780;2024-03-02T08:59:27;97.70;;;28.17;;
17235;SDS011;8734;59.272;17.780;2024-03-02T09:01:55;83.53;;;26.87;;
17235;SDS011;8734;59.272;17.780;2024-03-02T09:04:24;96.20;;;27.83;;
17235;SDS011;8734;59.272;17.780;2024-03-02T09:06:54;94.13;;;27.70;;
17235;SDS011;8734;59.272;17.780;2024-03-02T09:09:23;87.00;;;27.73;;
17235;SDS011;8734;59.272;17.780;2024-03-02T09:11:51;82.23;;;26.40;;
17235;SDS011;8734;59.272;17.780;2024-03-02T09:14:22;73.73;;;24.17;;
17235;SDS011;8734;59.272;17.780;2024-03-02T09:16:51;79.03;;;26.47;;
17235;SDS011;8734;59.272;17.780;2024-03-02T09:19:19;73.20;;;25.07;;
17235;SDS011;8734;59.272;17.780;2024-03-02T09:21:47;79.73;;;24.37;;
17235;SDS011;8734;59.272;17.780;2024-03-02T09:24:16;68.83;;;24.37;;
17235;SDS011;8734;59.272;17.780;2024-03-02T09:26:45;63.67;;;22.97;;
17235;SDS011;8734;59.272;17.780;2024-03-02T09:29:13;65.27;;;23.43;;
17235;SDS011;8734;59.272;17.780;2024-03-02T09:31:42;65.07;;;22.53;;
17235;SDS011;8734;59.272;17.780;2024-03-02T09:34:11;57.50;;;22.30;;
17235;SDS011;8734;59.272;17.780;2024-03-02T09:36:40;58.83;;;21.63;;
17235;SDS011;8734;59.272;17.780;2024-03-02T09:39:09;44.00;;;20.43;;
17235;SDS011;8734;59.272;17.780;2024-03-02T09:41:37;45.73;;;19.03;;
17235;SDS011;8734;59.272;17.780;2024-03-02T09:44:06;43.40;;;18.63;;
17235;SDS011;8734;59.272;17.780;2024-03-02T09:46:34;45.47;;;18.77;;
17235;SDS011;8734;59.272;17.780;2024-03-02T09:49:04;43.10;;;17.50;;
17235;SDS011;8734;59.272;17.780;2024-03-02T09:51:32;44.20;;;16.53;;
17235;SDS011;8734;59.272;17.780;2024-03-02T09:54:01;41.73;;;17.37;;
17235;SDS011;8734;59.272;17.780;2024-03-02T09:56:43;38.90;;;16.40;;
17235;SDS011;8734;59.272;17.780;2024-03-02T09:59:12;37.57;;;16.87;;
17235;SDS011;8734;59.272;17.780;2024-03-02T10:01:55;37.60;;;16.33;;
17235;SDS011;8734;59.272;17.780;2024-03-02T10:04:26;41.10;;;15.43;;
17235;SDS011;8734;59.272;17.780;2024-03-02T10:07:09;47.10;;;16.70;;
17235;SDS011;8734;59.272;17.780;2024-03-02T10:09:38;33.37;;;14.93;;
17235;SDS011;8734;59.272;17.780;2024-03-02T10:12:08;44.30;;;17.07;;
17235;SDS011;8734;59.272;17.780;2024-03-02T10:14:37;43.23;;;16.80;;
17235;SDS011;8734;59.272;17.780;2024-03-02T10:17:08;39.13;;;15.07;;
17235;SDS011;8734;59.272;17.780;2024-03-02T10:19:39;33.33;;;15.00;;
17235;SDS011;8734;59.272;17.780;2024-03-02T10:22:08;38.80;;;15.70;;
17235;SDS011;8734;59.272;17.780;2024-03-02T10:24:38;38.70;;;15.43;;
17235;SDS011;8734;59.272;17.780;2024-03-02T10:27:08;38.93;;;15.63;;
17235;SDS011;8734;59.272;17.780;2024-03-02T10:29:38;34.03;;;14.60;;
17235;SDS011;8734;59.272;17.780;2024-03-02T10:32:10;36.90;;;16.37;;
17235;SDS011;8734;59.272;17.780;2024-03-02T10:34:42;37.83;;;15.03;;
17235;SDS011;8734;59.272;17.780;2024-03-02T10:37:12;33.00;;;16.00;;
17235;SDS011;8734;59.272;17.780;2024-03-02T10:39:41;38.93;;;15.60;;
17235;SDS011;8734;59.272;17.780;2024-03-02T10:42:09;36.20;;;15.07;;
17235;SDS011;8734;59.272;17.780;2024-03-02T10:44:39;44.03;;;16.07;;
17235;SDS011;8734;59.272;17.780;2024-03-02T10:47:09;38.97;;;15.77;;
17235;SDS011;8734;59.272;17.780;2024-03-02T10:49:42;40.77;;;15.40;;
17235;SDS011;8734;59.272;17.780;2024-03-02T10:52:13;34.63;;;15.57;;
17235;SDS011;8734;59.272;17.780;2024-03-02T10:54:42;42.90;;;15.17;;
17235;SDS011;8734;59.272;17.780;2024-03-02T10:57:10;38.80;;;15.30;;
17235;SDS011;8734;59.272;17.780;2024-03-02T10:59:43;37.10;;;16.07;;
17235;SDS011;8734;59.272;17.780;2024-03-02T11:02:19;35.97;;;15.70;;
17235;SDS011;8734;59.272;17.780;2024-03-02T11:04:50;30.47;;;14.87;;
17235;SDS011;8734;59.272;17.780;2024-03-02T11:07:22;26.83;;;13.93;;
17235;SDS011;8734;59.272;17.780;2024-03-02T11:09:53;34.70;;;13.90;;
17235;SDS011;8734;59.272;17.780;2024-03-02T11:12:29;37.90;;;15.77;;
17235;SDS011;8734;59.272;17.780;2024-03-02T11:15:01;36.70;;;15.63;;
17235;SDS011;8734;59.272;17.780;2024-03-02T11:17:32;33.03;;;14.47;;
17235;SDS011;8734;59.272;17.780;2024-03-02T11:20:02;39.20;;;15.50;;
17235;SDS011;8734;59.272;17.780;2024-03-02T11:22:31;32.53;;;14.43;;
17235;SDS011;8734;59.272;17.780;2024-03-02T11:24:59;33.97;;;15.13;;
17235;SDS011;8734;59.272;17.780;2024-03-02T11:33:26;40.87;;;15.73;;
17235;SDS011;8734;59.272;17.780;2024-03-02T11:35:59;33.47;;;14.20;;
17235;SDS011;8734;59.272;17.780;2024-03-02T11:38:29;39.23;;;15.10;;
17235;SDS011;8734;59.272;17.780;2024-03-02T11:40:59;32.13;;;14.97;;
17235;SDS011;8734;59.272;17.780;2024-03-02T11:43:28;37.10;;;15.20;;
17235;SDS011;8734;59.272;17.780;2024-03-02T11:45:57;29.00;;;14.40;;
17235;SDS011;8734;59.272;17.780;2024-03-02T11:48:26;32.70;;;14.47;;
17235;SDS011;8734;59.272;17.780;2024-03-02T11:50:54;33.03;;;13.77;;
17235;SDS011;8734;59.272;17.780;2024-03-02T11:53:28;33.27;;;14.23;;
17235;SDS011;8734;59.272;17.780;2024-03-02T11:55:59;33.27;;;13.37;;
17235;SDS011;8734;59.272;17.780;2024-03-02T11:58:29;33.73;;;13.77;;
17235;SDS011;8734;59.272;17.780;2024-03-02T12:00:58;36.47;;;13.87;;
17235;SDS011;8734;59.272;17.780;2024-03-02T12:03:26;37.97;;;13.90;;
17235;SDS011;8734;59.272;17.780;2024-03-02T12:05:55;40.57;;;15.10;;
17235;SDS011;8734;59.272;17.780;2024-03-02T12:08:25;30.70;;;13.40;;
17235;SDS011;8734;59.272;17.780;2024-03-02T12:10:57;31.03;;;14.43;;
17235;SDS011;8734;59.272;17.780;2024-03-02T12:13:28;31.60;;;13.37;;
17235;SDS011;8734;59.272;17.780;2024-03-02T12:15:56;27.13;;;12.53;;
17235;SDS011;8734;59.272;17.780;2024-03-02T12:18:25;31.37;;;14.20;;
17235;SDS011;8734;59.272;17.780;2024-03-02T12:20:53;29.00;;;13.57;;
17235;SDS011;8734;59.272;17.780;2024-03-02T12:23:25;33.87;;;13.90;;
17235;SDS011;8734;59.272;17.780;2024-03-02T12:25:53;33.83;;;13.23;;
17235;SDS011;8734;59.272;17.780;2024-03-02T12:28:22;32.27;;;13.43;;
17235;SDS011;8734;59.272;17.780;2024-03-02T12:30:51;33.10;;;13.77;;
17235;SDS011;8734;59.272;17.780;2024-03-02T12:33:19;34.97;;;14.70;;
17235;SDS011;8734;59.272;17.780;2024-03-02T12:35:49;34.07;;;13.03;;
17235;SDS011;8734;59.272;17.780;2024-03-02T12:38:17;37.03;;;14.27;;
17235;SDS011;8734;59.272;17.780;2024-03-02T12:40:48;32.83;;;14.47;;
17235;SDS011;8734;59.272;17.780;2024-03-02T12:43:17;31.43;;;12.30;;
17235;SDS011;8734;59.272;17.780;2024-03-02T12:45:45;33.83;;;14.13;;
17235;SDS011;8734;59.272;17.780;2024-03-02T12:48:14;26.90;;;12.43;;
17235;SDS011;8734;59.272;17.780;2024-03-02T12:50:42;44.87;;;13.93;;
17235;SDS011;8734;59.272;17.780;2024-03-02T12:53:14;33.10;;;13.97;;
17235;SDS011;8734;59.272;17.780;2024-03-02T12:55:43;30.13;;;13.23;;
17235;SDS011;8734;59.272;17.780;2024-03-02T12:58:18;34.27;;;13.47;;
17235;SDS011;8734;59.272;17.780;2024-03-02T13:00:47;30.50;;;13.50;;
17235;SDS011;8734;59.272;17.780;2024-03-02T13:03:17;48.23;;;14.13;;
17235;SDS011;8734;59.272;17.780;2024-03-02T13:05:49;38.73;;;13.90;;
17235;SDS011;8734;59.272;17.780;2024-03-02T13:08:17;29.80;;;12.53;;
17235;SDS011;8734;59.272;17.780;2024-03-02T13:10:46;37.10;;;12.50;;
17235;SDS011;8734;59.272;17.780;2024-03-02T13:13:14;31.03;;;12.63;;
17235;SDS011;8734;59.272;17.780;2024-03-02T13:15:45;45.93;;;13.37;;
17235;SDS011;8734;59.272;17.780;2024-03-02T13:18:13;31.97;;;13.23;;
17235;SDS011;8734;59.272;17.780;2024-03-02T13:20:41;31.13;;;13.67;;
17235;SDS011;8734;59.272;17.780;2024-03-02T13:23:10;29.07;;;12.20;;
17235;SDS011;8734;59.272;17.780;2024-03-02T13:25:38;35.17;;;13.17;;
17235;SDS011;8734;59.272;17.780;2024-03-02T13:28:06;37.93;;;13.33;;
17235;SDS011;8734;59.272;17.780;2024-03-02T13:30:35;40.40;;;14.13;;
17235;SDS011;8734;59.272;17.780;2024-03-02T13:33:05;28.63;;;13.17;;
17235;SDS011;8734;59.272;17.780;2024-03-02T13:35:33;33.13;;;13.63;;
17235;SDS011;8734;59.272;17.780;2024-03-02T13:38:01;27.10;;;12.07;;
17235;SDS011;8734;59.272;17.780;2024-03-02T13:40:29;32.70;;;12.90;;
17235;SDS011;8734;59.272;17.780;2024-03-02T13:43:02;34.33;;;12.63;;
17235;SDS011;8734;59.272;17.780;2024-03-02T13:45:30;33.67;;;12.90;;
17235;SDS011;8734;59.272;17.780;2024-03-02T13:48:00;32.20;;;13.53;;
17235;SDS011;8734;59.272;17.780;2024-03-02T13:50:31;29.67;;;13.00;;
17235;SDS011;8734;59.272;17.780;2024-03-02T13:52:59;31.70;;;13.20;;
17235;SDS011;8734;59.272;17.780;2024-03-02T13:55:29;29.57;;;13.53;;
17235;SDS011;8734;59.272;17.780;2024-03-02T13:57:58;37.40;;;12.20;;
17235;SDS011;8734;59.272;17.780;2024-03-02T14:00:26;28.63;;;13.20;;
17235;SDS011;8734;59.272;17.780;2024-03-02T14:02:56;26.30;;;12.27;;
17235;SDS011;8734;59.272;17.780;2024-03-02T14:05:24;28.10;;;13.10;;
17235;SDS011;8734;59.272;17.780;2024-03-02T14:07:54;33.10;;;13.30;;
17235;SDS011;8734;59.272;17.780;2024-03-02T14:10:22;32.60;;;12.83;;
17235;SDS011;8734;59.272;17.780;2024-03-02T14:12:50;33.23;;;13.67;;
17235;SDS011;8734;59.272;17.780;2024-03-02T14:15:19;34.67;;;13.60;;
17235;SDS011;8734;59.272;17.780;2024-03-02T14:17:47;25.43;;;12.00;;
17235;SDS011;8734;59.272;17.780;2024-03-02T14:20:16;29.20;;;12.60;;
17235;SDS011;8734;59.272;17.780;2024-03-02T14:22:49;31.20;;;12.87;;
17235;SDS011;8734;59.272;17.780;2024-03-02T14:25:18;26.07;;;12.23;;
17235;SDS011;8734;59.272;17.780;2024-03-02T14:27:46;31.20;;;12.53;;
17235;SDS011;8734;59.272;17.780;2024-03-02T14:30:34;37.60;;;13.57;;
17235;SDS011;8734;59.272;17.780;2024-03-02T14:33:03;33.37;;;12.83;;
17235;SDS011;8734;59.272;17.780;2024-03-02T14:35:32;34.83;;;12.97;;
17235;SDS011;8734;59.272;17.780;2024-03-02T14:38:01;37.47;;;12.70;;